Flight Track Log - Related Links

Times and Time Zones

All times are in EDT time to prevent confusion due to time zone crossing. See the N729JB flight status page for this flight to view local times or setup timezone preferences in your user account.

Time Position Orientation Groundspeed Altitude Reporting Facility
EDT Latitude Longitude Course Direction KTS MPH feet Rate Location/Type
Thu 11:20:58 AM 42.3690 -70.9310 76° East 201 231 2,200  Level FlightAware ADS-B
Thu 11:21:23 AM 42.3750 -70.8980 76° East 219 252 3,400 2,400 Climbing FlightAware ADS-B
Thu 11:22:08 AM 42.3620 -70.8360 106° East 277 319 5,000 2,400 Climbing FlightAware ADS-B
Thu 11:22:33 AM 42.3380 -70.8040 135° Southeast 288 331 6,200 2,727 Climbing FlightAware ADS-B
Thu 11:23:03 AM 42.3070 -70.7630 136° Southeast 310 357 7,500 2,550 Climbing FlightAware ADS-B
Thu 11:23:13 AM 42.2940 -70.7560 158° South 305 351 7,900 2,700 Climbing FlightAware ADS-B
Thu 11:23:23 AM 42.2810 -70.7530 170° South 292 336 8,400 3,800 Climbing FlightAware ADS-B
Thu 11:23:43 AM 42.2560 -70.7610 193° South 267 307 9,800 3,771 Climbing FlightAware ADS-B
Thu 11:23:58 AM 42.2400 -70.7760 215° Southwest 252 290 10,600 2,000 Climbing FlightAware ADS-B
Thu 11:24:28 AM 42.2270 -70.8210 249° West 278 320 11,300 1,886 Climbing FlightAware ADS-B
Thu 11:25:08 AM 42.2170 -70.8900 259° West 298 343 12,800 2,400 Climbing FlightAware ADS-B
Thu 11:25:48 AM 42.2070 -70.9650 260° West 310 357 14,500 2,682 Climbing FlightAware ADS-B
Thu 11:26:33 AM 42.1940 -71.0530 259° West 317 365 16,600 2,541 Climbing FlightAware ADS-B
Thu 11:27:13 AM 42.1820 -71.1320 258° West 328 377 18,100 2,100 Climbing FlightAware ADS-B
Thu 11:27:53 AM 42.1700 -71.2140 259° West 342 394 19,400 1,906 Climbing FlightAware ADS-B
Thu 11:28:38 AM 42.1560 -71.3060 258° West 351 404 20,800 1,875 Climbing FlightAware ADS-B
Thu 11:29:13 AM 42.1450 -71.3760 258° West 353 406 21,900 1,650 Climbing FlightAware ADS-B
Thu 11:29:58 AM 42.1280 -71.4890 259° West 365 420 23,000 733 Climbing FlightAware ADS-B
Thu 11:30:43 AM 42.1130 -71.5900 259° West 367 422 23,000  Level FlightAware ADS-B
Thu 11:31:23 AM 42.1030 -71.6570 259° West 370 426 23,000 918 Level FlightAware ADS-B
Thu 11:32:08 AM 42.0840 -71.7820 258° West 374 430 24,300 1,694 Climbing FlightAware ADS-B
Thu 11:32:48 AM 42.0700 -71.8720 258° West 379 436 25,400 1,575 Climbing FlightAware ADS-B
Thu 11:33:28 AM 42.0550 -71.9670 258° West 386 444 26,400 1,412 Climbing FlightAware ADS-B
Thu 11:34:13 AM 42.0390 -72.0710 258° West 393 452 27,400 1,129 Climbing FlightAware ADS-B
Thu 11:34:53 AM 42.0240 -72.1720 259° West 394 453 28,000 343 Climbing FlightAware ADS-B
Thu 11:35:58 AM 41.9790 -72.3080 246° West 390 449 28,000  Level FlightAware ADS-B
Thu 11:37:28 AM 41.8880 -72.4770 234° Southwest 374 430 28,000  Level FlightAware ADS-B
Thu 11:38:38 AM 41.8170 -72.6070 234° Southwest 378 435 28,000  Level FlightAware ADS-B
Thu 11:39:18 AM 41.7820 -72.6710 234° Southwest 378 435 28,000  Level FlightAware ADS-B
Thu 11:39:58 AM 41.7370 -72.7550 234° Southwest 384 442 28,000  Level FlightAware ADS-B
Thu 11:40:58 AM 41.6633 -72.8894 234° Southwest 378 435 28,000  Level FlightAware ADS-B
Thu 11:41:29 AM 41.6306 -72.9489 234° Southwest 379 436 28,000  Level FlightAware ADS-B
Thu 11:42:10 AM 41.5883 -73.0262 234° Southwest 381 438 28,000  Level FlightAware ADS-B
Thu 11:42:43 AM 41.5544 -73.0880 234° Southwest 381 438 28,000  Level FlightAware ADS-B
Thu 11:43:16 AM 41.5191 -73.1519 234° Southwest 381 438 28,000  Level FlightAware ADS-B
Thu 11:43:49 AM 41.4856 -73.2123 233° Southwest 381 438 28,000  Level FlightAware ADS-B
Thu 11:44:19 AM 41.4533 -73.2704 233° Southwest 380 437 28,000  Level FlightAware ADS-B
Thu 11:44:53 AM 41.4180 -73.3340 234° Southwest 383 441 28,000  Level FlightAware ADS-B
Thu 11:45:24 AM 41.3853 -73.3930 234° Southwest 387 445 28,000  Level FlightAware ADS-B
Thu 11:45:54 AM 41.3534 -73.4502 233° Southwest 386 444 28,000  Level FlightAware ADS-B
Thu 11:46:24 AM 41.3211 -73.5079 233° Southwest 386 444 28,000  Level FlightAware ADS-B
Thu 11:46:55 AM 41.2883 -73.5666 233° Southwest 387 445 28,000  Level FlightAware ADS-B
Thu 11:47:27 AM 41.2540 -73.6267 233° Southwest 388 447 28,000  Level FlightAware ADS-B
Thu 11:48:00 AM 41.2175 -73.6881 232° Southwest 391 450 28,000  Level FlightAware ADS-B
Thu 11:48:34 AM 41.1785 -73.7534 232° Southwest 392 451 28,000  Level FlightAware ADS-B
Thu 11:49:08 AM 41.1400 -73.8182 232° Southwest 395 455 28,000  Level FlightAware ADS-B
Thu 11:49:39 AM 41.1058 -73.8755 232° Southwest 394 453 28,000  Level FlightAware ADS-B
Thu 11:50:09 AM 41.0721 -73.9321 232° Southwest 390 449 28,000  Level FlightAware ADS-B
Thu 11:50:41 AM 41.0367 -73.9916 232° Southwest 390 449 28,000  Level FlightAware ADS-B
Thu 11:51:11 AM 41.0027 -74.0486 232° Southwest 391 450 28,000  Level FlightAware ADS-B
Thu 11:51:42 AM 40.9685 -74.1057 232° Southwest 391 450 28,000  Level FlightAware ADS-B
Thu 11:51:46 AM 40.9638 -74.1135 231° Southwest 392 451 28,000  Level FlightAware ADS-B
Thu 11:52:12 AM 40.9340 -74.1631 232° Southwest 392 451 28,000  Level FlightAware ADS-B
Thu 11:52:16 AM 40.9293 -74.1709 231° Southwest 392 451 28,000  Level FlightAware ADS-B
Thu 11:52:44 AM 40.8983 -74.2224 231° Southwest 393 452 28,000  Level FlightAware ADS-B
Thu 11:53:10 AM 40.8690 -74.2711 232° Southwest 392 451 28,000  Level FlightAware ADS-B
Thu 11:53:16 AM 40.8624 -74.2821 232° Southwest 391 450 28,000 -158 Level FlightAware ADS-B
Thu 11:53:48 AM 40.8262 -74.3421 231° Southwest 390 449 27,900 -387 Descending FlightAware ADS-B
Thu 11:54:18 AM 40.7923 -74.3979 231° Southwest 391 450 27,600 -590 Descending FlightAware ADS-B
Thu 11:54:49 AM 40.7584 -74.4538 231° Southwest 396 456 27,300 -689 Descending FlightAware ADS-B
Thu 11:55:19 AM 40.7224 -74.5133 231° Southwest 401 461 26,900 -787 Descending FlightAware ADS-B
Thu 11:55:50 AM 40.6864 -74.5726 231° Southwest 402 463 26,500 -677 Descending FlightAware ADS-B
Thu 11:56:21 AM 40.6509 -74.6308 231° Southwest 398 458 26,200 -571 Descending FlightAware ADS-B
Thu 11:56:53 AM 40.6140 -74.6910 231° Southwest 390 449 25,900 -610 Descending FlightAware ADS-B
Thu 11:57:20 AM 40.5836 -74.7403 231° Southwest 393 452 25,600 -712 Descending FlightAware ADS-B
Thu 11:57:52 AM 40.5444 -74.7963 227° Southwest 397 457 25,200 -667 Descending FlightAware ADS-B
Thu 11:58:23 AM 40.5051 -74.8519 227° Southwest 401 461 24,900 -689 Descending FlightAware ADS-B
Thu 11:58:53 AM 40.4667 -74.9061 227° Southwest 400 460 24,500 -787 Descending FlightAware ADS-B
Thu 11:59:24 AM 40.4289 -74.9593 227° Southwest 391 450 24,100 -677 Descending FlightAware ADS-B
Thu 11:59:55 AM 40.3908 -75.0127 227° Southwest 379 436 23,800 -590 Descending FlightAware ADS-B
Thu 12:00:25 PM 40.3552 -75.0627 227° Southwest 374 430 23,500 -590 Descending FlightAware ADS-B
Thu 12:00:56 PM 40.3193 -75.1133 227° Southwest 372 428 23,200 -689 Descending FlightAware ADS-B
Thu 12:01:26 PM 40.2838 -75.1633 227° Southwest 370 426 22,800 -700 Descending FlightAware ADS-B
Thu 12:01:56 PM 40.2485 -75.2125 227° Southwest 367 422 22,500 -689 Descending FlightAware ADS-B
Thu 12:02:27 PM 40.2135 -75.2611 227° Southwest 366 421 22,100 -667 Descending FlightAware ADS-B
Thu 12:02:59 PM 40.1758 -75.3136 227° Southwest 362 417 21,800 -677 Descending FlightAware ADS-B
Thu 12:03:29 PM 40.1417 -75.3612 227° Southwest 357 411 21,400 -689 Descending FlightAware ADS-B
Thu 12:04:00 PM 40.1073 -75.4092 227° Southwest 357 411 21,100 -689 Descending FlightAware ADS-B
Thu 12:04:30 PM 40.0732 -75.4564 227° Southwest 358 412 20,700 -700 Descending FlightAware ADS-B
Thu 12:05:00 PM 40.0390 -75.5035 227° Southwest 357 411 20,400 -590 Descending FlightAware ADS-B
Thu 12:05:31 PM 40.0041 -75.5518 227° Southwest 354 407 20,100 -381 Descending FlightAware ADS-B
Thu 12:06:03 PM 39.9681 -75.6016 227° Southwest 355 409 20,000 -97 Descending FlightAware ADS-B
Thu 12:06:33 PM 39.9339 -75.6487 227° Southwest 354 407 20,000  Level FlightAware ADS-B
Thu 12:06:48 PM 39.9179 -75.6719 228° Southwest 353 406 20,000  Level FlightAware ADS-B
Thu 12:06:56 PM 39.9100 -75.6856 233° Southwest 351 404 20,000  Level FlightAware ADS-B
Thu 12:07:27 PM 39.8820 -75.7394 236° Southwest 350 403 20,000  Level FlightAware ADS-B
Thu 12:08:03 PM 39.8498 -75.8015 236° Southwest 351 404 20,000  Level FlightAware ADS-B
Thu 12:08:33 PM 39.8219 -75.8550 236° Southwest 351 404 20,000  Level FlightAware ADS-B
Thu 12:08:43 PM 39.8126 -75.8710 233° Southwest 351 404 20,000 -150 Level FlightAware ADS-B
Thu 12:09:13 PM 39.7803 -75.9202 230° Southwest 352 405 19,900 -492 Descending FlightAware ADS-B
Thu 12:09:44 PM 39.7480 -75.9690 229° Southwest 352 405 19,500 -1,065 Descending FlightAware ADS-B
Thu 12:10:15 PM 39.7153 -76.0186 229° Southwest 353 406 18,800 -1,475 Descending FlightAware ADS-B
Thu 12:10:45 PM 39.6836 -76.0667 229° Southwest 350 403 18,000 -1,672 Descending FlightAware ADS-B
Thu 12:11:16 PM 39.6511 -76.1161 229° Southwest 343 395 17,100 -1,714 Descending FlightAware ADS-B
Thu 12:11:48 PM 39.6185 -76.1652 229° Southwest 335 386 16,200 -1,594 Descending FlightAware ADS-B
Thu 12:12:20 PM 39.5866 -76.2134 229° Southwest 328 377 15,400 -1,645 Descending FlightAware ADS-B
Thu 12:12:50 PM 39.5576 -76.2572 229° Southwest 316 364 14,500 -1,700 Descending FlightAware ADS-B
Thu 12:13:20 PM 39.5292 -76.2997 229° Southwest 306 352 13,700 -1,619 Descending FlightAware ADS-B
Thu 12:13:53 PM 39.4993 -76.3445 229° Southwest 299 344 12,800 -1,297 Descending FlightAware ADS-B
Thu 12:14:34 PM 39.4640 -76.3977 229° Southwest 289 333 12,100 -677 Descending FlightAware ADS-B
Thu 12:14:55 PM 39.4445 -76.4241 226° Southwest 292 336 12,100  Level FlightAware ADS-B
Thu 12:15:30 PM 39.4053 -76.4587 214° Southwest 292 336 12,100  Level FlightAware ADS-B
Thu 12:16:01 PM 39.3707 -76.4885 214° Southwest 290 334 12,100  Level FlightAware ADS-B
Thu 12:16:32 PM 39.3358 -76.5188 214° Southwest 292 336 12,100  Level FlightAware ADS-B
Thu 12:17:04 PM 39.2999 -76.5498 214° Southwest 292 336 12,100  Level FlightAware ADS-B
Thu 12:17:35 PM 39.2651 -76.5800 214° Southwest 290 334 12,100  Level FlightAware ADS-B
Thu 12:18:06 PM 39.2310 -76.6094 214° Southwest 291 335 12,100 -98 Level FlightAware ADS-B
Thu 12:18:36 PM 39.1970 -76.6387 214° Southwest 290 334 12,000 -1,263 Descending FlightAware ADS-B
Thu 12:19:03 PM 39.1689 -76.6638 215° Southwest 278 320 10,900 -1,932 Descending FlightAware ADS-B
Thu 12:19:35 PM 39.1393 -76.6988 223° Southwest 272 313 10,100 -568 Descending FlightAware ADS-B
Thu 12:20:38 PM 39.0850 -76.7630 223° Southwest 259 298 10,000 -645 Descending FlightAware ADS-B
Thu 12:21:08 PM 39.0600 -76.7930 223° Southwest 261 300 9,100 -1,800 Descending FlightAware ADS-B
Thu 12:21:38 PM 39.0310 -76.8260 221° Southwest 263 303 8,200 -1,636 Descending FlightAware ADS-B
Thu 12:22:03 PM 39.0100 -76.8510 223° Southwest 259 298 7,600 -1,600 Descending FlightAware ADS-B
Thu 12:22:08 PM 39.0050 -76.8570 223° Southwest 257 296 7,400 -2,000 Descending FlightAware ADS-B
Thu 12:22:48 PM 38.9750 -76.9010 229° Southwest 252 290 6,100 -1,418 Descending FlightAware ADS-B
Thu 12:23:03 PM 38.9730 -76.9250 264° West 241 277 6,100 -1,200 Level FlightAware ADS-B
Thu 12:23:28 PM 38.9740 -76.9610 272° West 251 289 5,300 -1,200 Descending FlightAware ADS-B
Thu 12:23:53 PM 38.9750 -76.9900 273° West 233 268 5,100 -240 Descending FlightAware ADS-B
Thu 12:24:18 PM 38.9760 -77.0190 273° West 206 237 5,100  Level FlightAware ADS-B
Thu 12:24:38 PM 38.9850 -77.0380 301° West 177 204 5,100 -600 Level FlightAware ADS-B
Thu 12:25:08 PM 39.0020 -77.0590 316° Northwest 174 200 4,600 -1,200 Descending FlightAware ADS-B
Thu 12:25:33 PM 39.0180 -77.0780 317° Northwest 178 205 4,000 -1,371 Descending FlightAware ADS-B
Thu 12:25:43 PM 39.0240 -77.0860 314° West 179 206 3,800 -1,440 Descending FlightAware ADS-B
Thu 12:25:58 PM 39.0280 -77.0980 293° West 181 208 3,400 -600 Descending FlightAware ADS-B
Thu 12:26:53 PM 39.0020 -77.1460 235° Southwest 179 206 3,100 -320 Descending FlightAware ADS-B
Thu 12:27:13 PM 38.9880 -77.1480 186° South 180 207 3,000 -600 Descending FlightAware ADS-B
Thu 12:27:23 PM 38.9780 -77.1460 171° South 180 207 2,800 -1,050 Descending FlightAware ADS-B
Thu 12:27:53 PM 38.9540 -77.1330 157° South 175 201 2,300 -1,000 Descending FlightAware ADS-B

Login

Don't have an account? Register now (free) for customized features, flight alerts, and more!